sensor_id;sensor_type;location;lat;lon;timestamp;temperature;humidity
2407;DHT22;37709;53.480;9.688;2022-12-10T00:01:34;-0.70;99.90
2407;DHT22;37709;53.480;9.688;2022-12-10T00:04:02;-0.70;99.90
2407;DHT22;37709;53.480;9.688;2022-12-10T00:06:32;-0.70;99.90
2407;DHT22;37709;53.480;9.688;2022-12-10T00:09:02;-0.70;99.90
2407;DHT22;37709;53.480;9.688;2022-12-10T00:11:30;-0.60;99.90
2407;DHT22;37709;53.480;9.688;2022-12-10T00:13:57;-0.70;99.90
2407;DHT22;37709;53.480;9.688;2022-12-10T00:16:27;-0.70;99.90
2407;DHT22;37709;53.480;9.688;2022-12-10T00:18:55;-0.60;99.90
2407;DHT22;37709;53.480;9.688;2022-12-10T00:21:33;-0.60;99.90
2407;DHT22;37709;53.480;9.688;2022-12-10T00:24:02;-0.60;99.90
2407;DHT22;37709;53.480;9.688;2022-12-10T00:26:35;-0.70;99.90
2407;DHT22;37709;53.480;9.688;2022-12-10T00:29:04;-0.70;99.90
2407;DHT22;37709;53.480;9.688;2022-12-10T00:31:35;-0.70;99.90
2407;DHT22;37709;53.480;9.688;2022-12-10T00:34:05;-0.70;99.90
2407;DHT22;37709;53.480;9.688;2022-12-10T00:36:59;-0.70;99.90
2407;DHT22;37709;53.480;9.688;2022-12-10T00:39:27;-0.70;99.90
2407;DHT22;37709;53.480;9.688;2022-12-10T00:41:54;-0.70;99.90
2407;DHT22;37709;53.480;9.688;2022-12-10T00:44:21;-0.70;99.90
2407;DHT22;37709;53.480;9.688;2022-12-10T00:46:49;-0.70;99.90
2407;DHT22;37709;53.480;9.688;2022-12-10T00:49:16;-0.70;99.90
2407;DHT22;37709;53.480;9.688;2022-12-10T00:51:43;-0.70;99.90
2407;DHT22;37709;53.480;9.688;2022-12-10T00:54:11;-0.70;99.90
2407;DHT22;37709;53.480;9.688;2022-12-10T00:56:40;-0.70;99.90
2407;DHT22;37709;53.480;9.688;2022-12-10T00:59:07;-0.70;99.90
2407;DHT22;37709;53.480;9.688;2022-12-10T01:01:37;-0.70;99.90
2407;DHT22;37709;53.480;9.688;2022-12-10T01:04:08;-0.70;99.90
2407;DHT22;37709;53.480;9.688;2022-12-10T01:06:46;-0.70;99.90
2407;DHT22;37709;53.480;9.688;2022-12-10T01:09:19;-0.70;99.90
2407;DHT22;37709;53.480;9.688;2022-12-10T01:11:48;-0.70;99.90
2407;DHT22;37709;53.480;9.688;2022-12-10T01:14:22;-0.70;99.90
2407;DHT22;37709;53.480;9.688;2022-12-10T01:16:53;-0.60;99.90
2407;DHT22;37709;53.480;9.688;2022-12-10T01:19:21;-0.60;99.90
2407;DHT22;37709;53.480;9.688;2022-12-10T01:21:52;-0.60;99.90
2407;DHT22;37709;53.480;9.688;2022-12-10T01:24:21;-0.60;99.90
2407;DHT22;37709;53.480;9.688;2022-12-10T01:26:49;-0.60;99.90
2407;DHT22;37709;53.480;9.688;2022-12-10T01:29:17;-0.60;99.90
2407;DHT22;37709;53.480;9.688;2022-12-10T01:31:45;-0.60;99.90
2407;DHT22;37709;53.480;9.688;2022-12-10T01:34:15;-0.60;99.90
2407;DHT22;37709;53.480;9.688;2022-12-10T01:36:44;-0.60;99.90
2407;DHT22;37709;53.480;9.688;2022-12-10T01:39:14;-0.60;99.90
2407;DHT22;37709;53.480;9.688;2022-12-10T01:41:45;-0.60;99.90
2407;DHT22;37709;53.480;9.688;2022-12-10T01:46:42;-0.60;99.90
2407;DHT22;37709;53.480;9.688;2022-12-10T01:49:16;-0.60;99.90
2407;DHT22;37709;53.480;9.688;2022-12-10T01:51:46;-0.50;99.90
2407;DHT22;37709;53.480;9.688;2022-12-10T01:54:18;-0.50;99.90
2407;DHT22;37709;53.480;9.688;2022-12-10T01:56:48;-0.50;99.90
2407;DHT22;37709;53.480;9.688;2022-12-10T01:59:17;-0.50;99.90
2407;DHT22;37709;53.480;9.688;2022-12-10T02:02:54;-0.50;99.90
2407;DHT22;37709;53.480;9.688;2022-12-10T02:05:04;-0.50;99.90
2407;DHT22;37709;53.480;9.688;2022-12-10T02:16:20;-0.50;99.90
2407;DHT22;37709;53.480;9.688;2022-12-10T02:18:53;-0.50;99.90
2407;DHT22;37709;53.480;9.688;2022-12-10T02:21:49;-0.50;99.90
2407;DHT22;37709;53.480;9.688;2022-12-10T02:24:28;-0.50;99.90
2407;DHT22;37709;53.480;9.688;2022-12-10T02:27:19;-0.50;99.90
2407;DHT22;37709;53.480;9.688;2022-12-10T02:29:51;-0.50;99.90
2407;DHT22;37709;53.480;9.688;2022-12-10T02:32:23;-0.50;99.90
2407;DHT22;37709;53.480;9.688;2022-12-10T02:34:55;-0.60;99.90
2407;DHT22;37709;53.480;9.688;2022-12-10T02:37:33;-0.50;99.90
2407;DHT22;37709;53.480;9.688;2022-12-10T02:40:06;-0.50;99.90
2407;DHT22;37709;53.480;9.688;2022-12-10T02:42:41;-0.50;99.90
2407;DHT22;37709;53.480;9.688;2022-12-10T02:45:10;-0.50;99.90
2407;DHT22;37709;53.480;9.688;2022-12-10T02:47:39;-0.50;99.90
2407;DHT22;37709;53.480;9.688;2022-12-10T02:50:10;-0.50;99.90
2407;DHT22;37709;53.480;9.688;2022-12-10T02:52:38;-0.50;99.90
2407;DHT22;37709;53.480;9.688;2022-12-10T02:55:05;-0.50;99.90
2407;DHT22;37709;53.480;9.688;2022-12-10T03:00:24;-0.50;99.90
2407;DHT22;37709;53.480;9.688;2022-12-10T03:05:43;-0.50;99.90
2407;DHT22;37709;53.480;9.688;2022-12-10T03:08:23;-0.50;99.90
2407;DHT22;37709;53.480;9.688;2022-12-10T03:10:56;-0.50;99.90
2407;DHT22;37709;53.480;9.688;2022-12-10T03:13:33;-0.50;99.90
2407;DHT22;37709;53.480;9.688;2022-12-10T03:16:04;-0.50;99.90
2407;DHT22;37709;53.480;9.688;2022-12-10T03:18:34;-0.50;99.90
2407;DHT22;37709;53.480;9.688;2022-12-10T03:21:04;-0.50;99.90
2407;DHT22;37709;53.480;9.688;2022-12-10T03:23:36;-0.50;99.90
2407;DHT22;37709;53.480;9.688;2022-12-10T03:26:05;-0.50;99.90
2407;DHT22;37709;53.480;9.688;2022-12-10T03:28:37;-0.50;99.90
2407;DHT22;37709;53.480;9.688;2022-12-10T03:31:07;-0.50;99.90
2407;DHT22;37709;53.480;9.688;2022-12-10T03:33:36;-0.50;99.90
2407;DHT22;37709;53.480;9.688;2022-12-10T03:36:05;-0.50;99.90
2407;DHT22;37709;53.480;9.688;2022-12-10T03:38:34;-0.50;99.90
2407;DHT22;37709;53.480;9.688;2022-12-10T03:41:03;-0.50;99.90
2407;DHT22;37709;53.480;9.688;2022-12-10T03:43:30;-0.50;99.90
2407;DHT22;37709;53.480;9.688;2022-12-10T03:45:58;-0.50;99.90
2407;DHT22;37709;53.480;9.688;2022-12-10T03:48:25;-0.50;99.90
2407;DHT22;37709;53.480;9.688;2022-12-10T03:50:53;-0.50;99.90
2407;DHT22;37709;53.480;9.688;2022-12-10T03:53:21;-0.50;99.90
2407;DHT22;37709;53.480;9.688;2022-12-10T03:55:48;-0.50;99.90
2407;DHT22;37709;53.480;9.688;2022-12-10T03:58:16;-0.50;99.90
2407;DHT22;37709;53.480;9.688;2022-12-10T04:00:46;-0.50;99.90
2407;DHT22;37709;53.480;9.688;2022-12-10T04:03:14;-0.50;99.90
2407;DHT22;37709;53.480;9.688;2022-12-10T04:05:41;-0.50;99.90
2407;DHT22;37709;53.480;9.688;2022-12-10T04:08:08;-0.50;99.90
2407;DHT22;37709;53.480;9.688;2022-12-10T04:10:38;-0.50;99.90
2407;DHT22;37709;53.480;9.688;2022-12-10T04:13:06;-0.50;99.90
2407;DHT22;37709;53.480;9.688;2022-12-10T04:15:51;-0.60;99.90
2407;DHT22;37709;53.480;9.688;2022-12-10T04:18:37;-0.60;99.90
2407;DHT22;37709;53.480;9.688;2022-12-10T04:21:05;-0.60;99.90
2407;DHT22;37709;53.480;9.688;2022-12-10T04:23:51;-0.60;99.90
2407;DHT22;37709;53.480;9.688;2022-12-10T04:26:37;-0.50;99.90
2407;DHT22;37709;53.480;9.688;2022-12-10T04:29:25;-0.60;99.90
2407;DHT22;37709;53.480;9.688;2022-12-10T04:31:53;-0.50;99.90
2407;DHT22;37709;53.480;9.688;2022-12-10T04:34:22;-0.50;99.90
2407;DHT22;37709;53.480;9.688;2022-12-10T04:36:50;-0.50;99.90
2407;DHT22;37709;53.480;9.688;2022-12-10T04:39:18;-0.50;99.90
2407;DHT22;37709;53.480;9.688;2022-12-10T04:41:46;-0.50;99.90
2407;DHT22;37709;53.480;9.688;2022-12-10T04:44:14;-0.50;99.90
2407;DHT22;37709;53.480;9.688;2022-12-10T04:46:41;-0.50;99.90
2407;DHT22;37709;53.480;9.688;2022-12-10T04:49:10;-0.50;99.90
2407;DHT22;37709;53.480;9.688;2022-12-10T04:51:37;-0.50;99.90
2407;DHT22;37709;53.480;9.688;2022-12-10T04:54:05;-0.50;99.90
2407;DHT22;37709;53.480;9.688;2022-12-10T04:56:33;-0.50;99.90
2407;DHT22;37709;53.480;9.688;2022-12-10T04:59:02;-0.50;99.90
2407;DHT22;37709;53.480;9.688;2022-12-10T05:01:30;-0.60;99.90
2407;DHT22;37709;53.480;9.688;2022-12-10T05:04:02;-0.50;99.90
2407;DHT22;37709;53.480;9.688;2022-12-10T05:06:30;-0.60;99.90
2407;DHT22;37709;53.480;9.688;2022-12-10T05:08:57;-0.60;99.90
2407;DHT22;37709;53.480;9.688;2022-12-10T05:11:27;-0.50;99.90
2407;DHT22;37709;53.480;9.688;2022-12-10T05:13:56;-0.50;99.90
2407;DHT22;37709;53.480;9.688;2022-12-10T05:16:24;-0.50;99.90
2407;DHT22;37709;53.480;9.688;2022-12-10T05:18:53;-0.50;99.90
2407;DHT22;37709;53.480;9.688;2022-12-10T05:21:21;-0.50;99.90
2407;DHT22;37709;53.480;9.688;2022-12-10T05:23:52;-0.50;99.90
2407;DHT22;37709;53.480;9.688;2022-12-10T05:26:24;-0.50;99.90
2407;DHT22;37709;53.480;9.688;2022-12-10T05:28:53;-0.50;99.90
2407;DHT22;37709;53.480;9.688;2022-12-10T05:31:24;-0.50;99.90
2407;DHT22;37709;53.480;9.688;2022-12-10T05:33:52;-0.50;99.90
2407;DHT22;37709;53.480;9.688;2022-12-10T05:36:23;-0.50;99.90
2407;DHT22;37709;53.480;9.688;2022-12-10T05:38:51;-0.50;99.90
2407;DHT22;37709;53.480;9.688;2022-12-10T05:41:21;-0.50;99.90
2407;DHT22;37709;53.480;9.688;2022-12-10T05:43:49;-0.50;99.90
2407;DHT22;37709;53.480;9.688;2022-12-10T05:46:19;-0.50;99.90
2407;DHT22;37709;53.480;9.688;2022-12-10T05:48:47;-0.50;99.90
2407;DHT22;37709;53.480;9.688;2022-12-10T05:51:17;-0.50;99.90
2407;DHT22;37709;53.480;9.688;2022-12-10T05:53:45;-0.50;99.90
2407;DHT22;37709;53.480;9.688;2022-12-10T05:56:14;-0.50;99.90
2407;DHT22;37709;53.480;9.688;2022-12-10T05:58:45;-0.50;99.90
2407;DHT22;37709;53.480;9.688;2022-12-10T06:01:18;-0.60;99.90
2407;DHT22;37709;53.480;9.688;2022-12-10T06:03:46;-0.50;99.90
2407;DHT22;37709;53.480;9.688;2022-12-10T06:06:14;-0.50;99.90
2407;DHT22;37709;53.480;9.688;2022-12-10T06:08:46;-0.50;99.90
2407;DHT22;37709;53.480;9.688;2022-12-10T06:11:15;-0.60;99.90
2407;DHT22;37709;53.480;9.688;2022-12-10T06:13:42;-0.60;99.90
2407;DHT22;37709;53.480;9.688;2022-12-10T06:16:11;-0.60;99.90
2407;DHT22;37709;53.480;9.688;2022-12-10T06:18:39;-0.60;99.90
2407;DHT22;37709;53.480;9.688;2022-12-10T06:21:09;-0.60;99.90
2407;DHT22;37709;53.480;9.688;2022-12-10T06:23:38;-0.60;99.90
2407;DHT22;37709;53.480;9.688;2022-12-10T06:26:12;-0.60;99.90
2407;DHT22;37709;53.480;9.688;2022-12-10T06:28:41;-0.60;99.90
2407;DHT22;37709;53.480;9.688;2022-12-10T06:31:08;-0.60;99.90
2407;DHT22;37709;53.480;9.688;2022-12-10T06:33:36;-0.60;99.90
2407;DHT22;37709;53.480;9.688;2022-12-10T06:36:05;-0.60;99.90
2407;DHT22;37709;53.480;9.688;2022-12-10T06:38:34;-0.60;99.90
2407;DHT22;37709;53.480;9.688;2022-12-10T06:41:05;-0.60;99.90
2407;DHT22;37709;53.480;9.688;2022-12-10T06:43:33;-0.60;99.90
2407;DHT22;37709;53.480;9.688;2022-12-10T06:46:08;-0.60;99.90
2407;DHT22;37709;53.480;9.688;2022-12-10T06:48:36;-0.60;99.90
2407;DHT22;37709;53.480;9.688;2022-12-10T06:51:04;-0.50;99.90
2407;DHT22;37709;53.480;9.688;2022-12-10T06:53:33;-0.50;99.90
2407;DHT22;37709;53.480;9.688;2022-12-10T06:56:01;-0.60;99.90
2407;DHT22;37709;53.480;9.688;2022-12-10T06:58:30;-0.60;99.90
2407;DHT22;37709;53.480;9.688;2022-12-10T07:01:09;-0.60;99.90
2407;DHT22;37709;53.480;9.688;2022-12-10T07:03:37;-0.50;99.90
2407;DHT22;37709;53.480;9.688;2022-12-10T07:06:06;-0.50;99.90
2407;DHT22;37709;53.480;9.688;2022-12-10T07:08:35;-0.50;99.90
2407;DHT22;37709;53.480;9.688;2022-12-10T07:11:07;-0.60;99.90
2407;DHT22;37709;53.480;9.688;2022-12-10T07:13:35;-0.50;99.90
2407;DHT22;37709;53.480;9.688;2022-12-10T07:16:12;-0.50;99.90
2407;DHT22;37709;53.480;9.688;2022-12-10T07:18:39;-0.50;99.90
2407;DHT22;37709;53.480;9.688;2022-12-10T07:21:15;-0.50;99.90
2407;DHT22;37709;53.480;9.688;2022-12-10T07:23:43;-0.50;99.90
2407;DHT22;37709;53.480;9.688;2022-12-10T07:26:10;-0.50;99.90
2407;DHT22;37709;53.480;9.688;2022-12-10T07:28:38;-0.50;99.90
2407;DHT22;37709;53.480;9.688;2022-12-10T07:31:20;-0.50;99.90
2407;DHT22;37709;53.480;9.688;2022-12-10T07:33:49;-0.50;99.90
2407;DHT22;37709;53.480;9.688;2022-12-10T07:36:16;-0.50;99.90
2407;DHT22;37709;53.480;9.688;2022-12-10T07:38:44;-0.50;99.90
2407;DHT22;37709;53.480;9.688;2022-12-10T07:41:13;-0.50;99.90
2407;DHT22;37709;53.480;9.688;2022-12-10T07:43:42;-0.50;99.90
2407;DHT22;37709;53.480;9.688;2022-12-10T07:48:40;-0.50;99.90
2407;DHT22;37709;53.480;9.688;2022-12-10T07:51:08;-0.50;99.90
2407;DHT22;37709;53.480;9.688;2022-12-10T07:53:36;-0.50;99.90
2407;DHT22;37709;53.480;9.688;2022-12-10T07:56:04;-0.50;99.90
2407;DHT22;37709;53.480;9.688;2022-12-10T07:58:32;-0.50;99.90
2407;DHT22;37709;53.480;9.688;2022-12-10T08:01:06;-0.40;99.90
2407;DHT22;37709;53.480;9.688;2022-12-10T08:03:34;-0.30;99.90
2407;DHT22;37709;53.480;9.688;2022-12-10T08:06:03;-0.40;99.90
2407;DHT22;37709;53.480;9.688;2022-12-10T08:08:33;-0.40;99.90
2407;DHT22;37709;53.480;9.688;2022-12-10T08:11:01;-0.40;99.90
2407;DHT22;37709;53.480;9.688;2022-12-10T08:13:30;-0.40;99.90
2407;DHT22;37709;53.480;9.688;2022-12-10T08:18:39;-0.50;99.90
2407;DHT22;37709;53.480;9.688;2022-12-10T08:21:14;-0.40;99.90
2407;DHT22;37709;53.480;9.688;2022-12-10T08:23:43;-0.50;99.90
2407;DHT22;37709;53.480;9.688;2022-12-10T08:26:17;-0.50;99.90
2407;DHT22;37709;53.480;9.688;2022-12-10T08:28:46;-0.50;99.90
2407;DHT22;37709;53.480;9.688;2022-12-10T08:31:16;-0.50;99.90
2407;DHT22;37709;53.480;9.688;2022-12-10T08:33:44;-0.50;99.90
2407;DHT22;37709;53.480;9.688;2022-12-10T08:36:14;-0.50;99.90
2407;DHT22;37709;53.480;9.688;2022-12-10T08:38:43;-0.40;99.90
2407;DHT22;37709;53.480;9.688;2022-12-10T08:41:17;-0.40;99.90
2407;DHT22;37709;53.480;9.688;2022-12-10T08:43:44;-0.50;99.90
2407;DHT22;37709;53.480;9.688;2022-12-10T08:46:13;-0.50;99.90
2407;DHT22;37709;53.480;9.688;2022-12-10T08:48:41;-0.50;99.90
2407;DHT22;37709;53.480;9.688;2022-12-10T08:51:11;-0.50;99.90
2407;DHT22;37709;53.480;9.688;2022-12-10T08:53:41;-0.50;99.90
2407;DHT22;37709;53.480;9.688;2022-12-10T08:56:08;-0.50;99.90
2407;DHT22;37709;53.480;9.688;2022-12-10T08:58:37;-0.50;99.90
2407;DHT22;37709;53.480;9.688;2022-12-10T09:01:09;-0.50;99.90
2407;DHT22;37709;53.480;9.688;2022-12-10T09:03:38;-0.50;99.90
2407;DHT22;37709;53.480;9.688;2022-12-10T09:06:08;-0.50;99.90
2407;DHT22;37709;53.480;9.688;2022-12-10T09:08:36;-0.50;99.90
2407;DHT22;37709;53.480;9.688;2022-12-10T09:11:13;-0.50;99.90
2407;DHT22;37709;53.480;9.688;2022-12-10T09:13:41;-0.50;99.90
2407;DHT22;37709;53.480;9.688;2022-12-10T09:16:10;-0.50;99.90
2407;DHT22;37709;53.480;9.688;2022-12-10T09:18:38;-0.60;99.90
2407;DHT22;37709;53.480;9.688;2022-12-10T09:21:11;-0.50;99.90
2407;DHT22;37709;53.480;9.688;2022-12-10T09:23:40;-0.50;99.90
2407;DHT22;37709;53.480;9.688;2022-12-10T09:26:10;-0.50;99.90
2407;DHT22;37709;53.480;9.688;2022-12-10T09:28:38;-0.50;99.90
2407;DHT22;37709;53.480;9.688;2022-12-10T09:31:07;-0.50;99.90
2407;DHT22;37709;53.480;9.688;2022-12-10T09:33:43;-0.50;99.90
2407;DHT22;37709;53.480;9.688;2022-12-10T09:36:12;-0.50;99.90
2407;DHT22;37709;53.480;9.688;2022-12-10T09:38:42;-0.50;99.90
2407;DHT22;37709;53.480;9.688;2022-12-10T09:44:20;-0.50;99.90
2407;DHT22;37709;53.480;9.688;2022-12-10T09:46:50;-0.50;99.90
2407;DHT22;37709;53.480;9.688;2022-12-10T09:51:48;-0.40;99.90
2407;DHT22;37709;53.480;9.688;2022-12-10T09:54:24;-0.40;99.90
2407;DHT22;37709;53.480;9.688;2022-12-10T09:56:54;-0.50;99.90
2407;DHT22;37709;53.480;9.688;2022-12-10T10:04:53;-0.40;99.90
2407;DHT22;37709;53.480;9.688;2022-12-10T10:07:26;-0.40;99.90
2407;DHT22;37709;53.480;9.688;2022-12-10T10:09:59;-0.40;99.90
2407;DHT22;37709;53.480;9.688;2022-12-10T10:12:30;-0.50;99.90
2407;DHT22;37709;53.480;9.688;2022-12-10T10:14:58;-0.40;99.90
2407;DHT22;37709;53.480;9.688;2022-12-10T10:17:34;-0.50;99.90
2407;DHT22;37709;53.480;9.688;2022-12-10T10:20:03;-0.50;99.90
2407;DHT22;37709;53.480;9.688;2022-12-10T10:22:31;-0.40;99.90
2407;DHT22;37709;53.480;9.688;2022-12-10T10:24:58;-0.40;99.90
2407;DHT22;37709;53.480;9.688;2022-12-10T10:27:30;-0.40;99.90
2407;DHT22;37709;53.480;9.688;2022-12-10T10:30:02;-0.40;99.90
2407;DHT22;37709;53.480;9.688;2022-12-10T10:35:05;-0.40;99.90
2407;DHT22;37709;53.480;9.688;2022-12-10T10:40:03;-0.30;99.90
2407;DHT22;37709;53.480;9.688;2022-12-10T10:42:40;-0.40;99.90
2407;DHT22;37709;53.480;9.688;2022-12-10T10:45:39;-0.30;99.90
2407;DHT22;37709;53.480;9.688;2022-12-10T10:48:23;-0.40;99.90
2407;DHT22;37709;53.480;9.688;2022-12-10T10:51:17;-0.40;99.90
2407;DHT22;37709;53.480;9.688;2022-12-10T10:53:56;-0.30;99.90
2407;DHT22;37709;53.480;9.688;2022-12-10T10:56:27;-0.30;99.90
2407;DHT22;37709;53.480;9.688;2022-12-10T10:59:28;-0.30;99.90
2407;DHT22;37709;53.480;9.688;2022-12-10T11:01:56;-0.30;99.90
2407;DHT22;37709;53.480;9.688;2022-12-10T11:07:04;-0.30;99.90
2407;DHT22;37709;53.480;9.688;2022-12-10T11:09:33;-0.40;99.90
2407;DHT22;37709;53.480;9.688;2022-12-10T11:12:06;-0.40;99.90
2407;DHT22;37709;53.480;9.688;2022-12-10T11:14:40;-0.40;99.90
2407;DHT22;37709;53.480;9.688;2022-12-10T11:20:09;-0.40;99.90
2407;DHT22;37709;53.480;9.688;2022-12-10T11:22:49;-0.30;99.90
2407;DHT22;37709;53.480;9.688;2022-12-10T11:25:18;-0.30;99.90
2407;DHT22;37709;53.480;9.688;2022-12-10T11:30:43;-0.30;99.90
2407;DHT22;37709;53.480;9.688;2022-12-10T11:33:41;-0.40;99.90
2407;DHT22;37709;53.480;9.688;2022-12-10T11:37:33;-0.40;99.90
2407;DHT22;37709;53.480;9.688;2022-12-10T11:39:51;-0.40;99.90
2407;DHT22;37709;53.480;9.688;2022-12-10T11:42:37;-0.30;99.90
2407;DHT22;37709;53.480;9.688;2022-12-10T11:45:16;-0.30;99.90
2407;DHT22;37709;53.480;9.688;2022-12-10T11:47:57;-0.20;99.90
2407;DHT22;37709;53.480;9.688;2022-12-10T11:50:47;-0.20;99.90
2407;DHT22;37709;53.480;9.688;2022-12-10T11:53:44;-0.30;99.90
2407;DHT22;37709;53.480;9.688;2022-12-10T11:56:25;-0.30;99.90
2407;DHT22;37709;53.480;9.688;2022-12-10T11:59:12;-0.30;99.90
2407;DHT22;37709;53.480;9.688;2022-12-10T12:01:59;-0.30;99.90
2407;DHT22;37709;53.480;9.688;2022-12-10T12:13:23;-0.40;99.90
2407;DHT22;37709;53.480;9.688;2022-12-10T12:15:58;-0.40;99.90
2407;DHT22;37709;53.480;9.688;2022-12-10T12:18:36;-0.30;99.90
2407;DHT22;37709;53.480;9.688;2022-12-10T12:21:12;-0.30;99.90
2407;DHT22;37709;53.480;9.688;2022-12-10T12:24:01;-0.30;99.90
2407;DHT22;37709;53.480;9.688;2022-12-10T12:26:40;-0.30;99.90
2407;DHT22;37709;53.480;9.688;2022-12-10T12:29:23;-0.30;99.90
2407;DHT22;37709;53.480;9.688;2022-12-10T12:32:04;-0.30;99.90
2407;DHT22;37709;53.480;9.688;2022-12-10T12:37:14;-0.30;99.90
2407;DHT22;37709;53.480;9.688;2022-12-10T12:39:58;-0.30;99.90
2407;DHT22;37709;53.480;9.688;2022-12-10T12:42:38;-0.30;99.90
2407;DHT22;37709;53.480;9.688;2022-12-10T12:45:24;-0.40;99.90
2407;DHT22;37709;53.480;9.688;2022-12-10T12:51:19;-0.50;99.90
2407;DHT22;37709;53.480;9.688;2022-12-10T12:53:48;-0.50;99.90
2407;DHT22;37709;53.480;9.688;2022-12-10T12:56:47;-0.50;99.90
2407;DHT22;37709;53.480;9.688;2022-12-10T13:02:45;-0.40;99.90
2407;DHT22;37709;53.480;9.688;2022-12-10T13:05:18;-0.40;99.90
2407;DHT22;37709;53.480;9.688;2022-12-10T13:15:50;-0.50;99.90
2407;DHT22;37709;53.480;9.688;2022-12-10T13:21:34;-0.40;99.90
2407;DHT22;37709;53.480;9.688;2022-12-10T13:23:48;-0.50;99.90
2407;DHT22;37709;53.480;9.688;2022-12-10T13:26:28;-0.50;99.90
2407;DHT22;37709;53.480;9.688;2022-12-10T13:31:56;-0.50;99.90
2407;DHT22;37709;53.480;9.688;2022-12-10T13:34:32;-0.50;99.90
2407;DHT22;37709;53.480;9.688;2022-12-10T13:48:15;-0.60;99.90
2407;DHT22;37709;53.480;9.688;2022-12-10T13:51:08;-0.70;99.90
2407;DHT22;37709;53.480;9.688;2022-12-10T13:53:46;-0.70;99.90
2407;DHT22;37709;53.480;9.688;2022-12-10T13:56:29;-0.60;99.90
2407;DHT22;37709;53.480;9.688;2022-12-10T14:02:40;-0.60;99.90
2407;DHT22;37709;53.480;9.688;2022-12-10T14:05:25;-0.70;99.90
2407;DHT22;37709;53.480;9.688;2022-12-10T14:07:56;-0.70;99.90
2407;DHT22;37709;53.480;9.688;2022-12-10T14:10:30;-0.70;99.90
2407;DHT22;37709;53.480;9.688;2022-12-10T14:13:01;-0.70;99.90
2407;DHT22;37709;53.480;9.688;2022-12-10T14:15:29;-0.70;99.90
2407;DHT22;37709;53.480;9.688;2022-12-10T14:18:09;-0.70;99.90
2407;DHT22;37709;53.480;9.688;2022-12-10T14:20:43;-0.70;99.90
2407;DHT22;37709;53.480;9.688;2022-12-10T14:23:44;-0.70;99.90
2407;DHT22;37709;53.480;9.688;2022-12-10T14:26:27;-0.70;99.90
2407;DHT22;37709;53.480;9.688;2022-12-10T14:29:00;-0.70;99.90
2407;DHT22;37709;53.480;9.688;2022-12-10T14:31:32;-0.70;99.90
2407;DHT22;37709;53.480;9.688;2022-12-10T14:34:03;-0.80;99.90
2407;DHT22;37709;53.480;9.688;2022-12-10T14:36:36;-0.70;99.90
2407;DHT22;37709;53.480;9.688;2022-12-10T14:39:17;-0.70;99.90
2407;DHT22;37709;53.480;9.688;2022-12-10T14:41:48;-0.80;99.90
2407;DHT22;37709;53.480;9.688;2022-12-10T14:44:18;-0.80;99.90
2407;DHT22;37709;53.480;9.688;2022-12-10T14:46:49;-0.80;99.90
2407;DHT22;37709;53.480;9.688;2022-12-10T14:49:23;-0.80;99.90
2407;DHT22;37709;53.480;9.688;2022-12-10T14:51:52;-0.80;99.90
2407;DHT22;37709;53.480;9.688;2022-12-10T14:54:30;-0.80;99.90
2407;DHT22;37709;53.480;9.688;2022-12-10T14:57:04;-0.90;99.90
2407;DHT22;37709;53.480;9.688;2022-12-10T14:59:42;-0.90;99.90
2407;DHT22;37709;53.480;9.688;2022-12-10T15:02:24;-0.90;99.90
2407;DHT22;37709;53.480;9.688;2022-12-10T15:04:52;-0.90;99.90
2407;DHT22;37709;53.480;9.688;2022-12-10T15:07:24;-0.90;99.90
2407;DHT22;37709;53.480;9.688;2022-12-10T15:09:53;-0.90;99.90
2407;DHT22;37709;53.480;9.688;2022-12-10T15:12:34;-0.90;99.90
2407;DHT22;37709;53.480;9.688;2022-12-10T15:15:10;-0.90;99.90
2407;DHT22;37709;53.480;9.688;2022-12-10T15:18:01;-0.90;99.90
2407;DHT22;37709;53.480;9.688;2022-12-10T15:21:09;-0.90;99.90
2407;DHT22;37709;53.480;9.688;2022-12-10T15:23:37;-0.90;99.90
2407;DHT22;37709;53.480;9.688;2022-12-10T15:26:22;-1.00;99.90
2407;DHT22;37709;53.480;9.688;2022-12-10T15:31:56;-0.90;99.90
2407;DHT22;37709;53.480;9.688;2022-12-10T15:34:28;-1.00;99.90
2407;DHT22;37709;53.480;9.688;2022-12-10T15:37:01;-0.90;99.90
2407;DHT22;37709;53.480;9.688;2022-12-10T15:39:31;-1.00;99.90
2407;DHT22;37709;53.480;9.688;2022-12-10T15:42:05;-0.90;99.90
2407;DHT22;37709;53.480;9.688;2022-12-10T15:44:37;-1.00;99.90
2407;DHT22;37709;53.480;9.688;2022-12-10T15:47:12;-1.00;99.90
2407;DHT22;37709;53.480;9.688;2022-12-10T15:49:42;-1.00;99.90
2407;DHT22;37709;53.480;9.688;2022-12-10T15:52:18;-1.00;99.90
2407;DHT22;37709;53.480;9.688;2022-12-10T15:54:48;-1.00;99.90
2407;DHT22;37709;53.480;9.688;2022-12-10T15:57:20;-1.00;99.90
2407;DHT22;37709;53.480;9.688;2022-12-10T15:59:56;-1.00;99.90
2407;DHT22;37709;53.480;9.688;2022-12-10T16:04:53;-1.00;99.90
2407;DHT22;37709;53.480;9.688;2022-12-10T16:07:20;-1.00;99.90
2407;DHT22;37709;53.480;9.688;2022-12-10T16:09:48;-1.00;99.90
2407;DHT22;37709;53.480;9.688;2022-12-10T16:12:16;-1.00;99.90
2407;DHT22;37709;53.480;9.688;2022-12-10T16:14:49;-1.00;99.90
2407;DHT22;37709;53.480;9.688;2022-12-10T16:17:18;-1.00;99.90
2407;DHT22;37709;53.480;9.688;2022-12-10T16:19:46;-1.00;99.90
2407;DHT22;37709;53.480;9.688;2022-12-10T16:22:14;-1.00;99.90
2407;DHT22;37709;53.480;9.688;2022-12-10T16:24:41;-1.00;99.90
2407;DHT22;37709;53.480;9.688;2022-12-10T16:27:13;-1.00;99.90
2407;DHT22;37709;53.480;9.688;2022-12-10T16:29:42;-1.00;99.90
2407;DHT22;37709;53.480;9.688;2022-12-10T16:32:10;-1.00;99.90
2407;DHT22;37709;53.480;9.688;2022-12-10T16:34:38;-1.00;99.90
2407;DHT22;37709;53.480;9.688;2022-12-10T16:37:06;-1.00;99.90
2407;DHT22;37709;53.480;9.688;2022-12-10T16:39:33;-1.00;99.90
2407;DHT22;37709;53.480;9.688;2022-12-10T16:42:01;-1.00;99.90
2407;DHT22;37709;53.480;9.688;2022-12-10T16:44:28;-1.00;99.90
2407;DHT22;37709;53.480;9.688;2022-12-10T16:46:58;-1.00;99.90
2407;DHT22;37709;53.480;9.688;2022-12-10T16:49:25;-1.00;99.90
2407;DHT22;37709;53.480;9.688;2022-12-10T16:51:53;-1.00;99.90
2407;DHT22;37709;53.480;9.688;2022-12-10T16:54:20;-1.00;99.90
2407;DHT22;37709;53.480;9.688;2022-12-10T16:56:48;-1.00;99.90
2407;DHT22;37709;53.480;9.688;2022-12-10T16:59:15;-1.00;99.90
2407;DHT22;37709;53.480;9.688;2022-12-10T17:01:43;-1.00;99.90
2407;DHT22;37709;53.480;9.688;2022-12-10T17:04:10;-1.00;99.90
2407;DHT22;37709;53.480;9.688;2022-12-10T17:06:38;-1.00;99.90
2407;DHT22;37709;53.480;9.688;2022-12-10T17:09:05;-1.00;99.90
2407;DHT22;37709;53.480;9.688;2022-12-10T17:11:39;-1.10;99.90
2407;DHT22;37709;53.480;9.688;2022-12-10T17:16:55;-1.00;99.90
2407;DHT22;37709;53.480;9.688;2022-12-10T17:19:33;-1.00;99.90
2407;DHT22;37709;53.480;9.688;2022-12-10T17:22:01;-1.00;99.90
2407;DHT22;37709;53.480;9.688;2022-12-10T17:24:29;-1.10;99.90
2407;DHT22;37709;53.480;9.688;2022-12-10T17:27:05;-1.00;99.90
2407;DHT22;37709;53.480;9.688;2022-12-10T17:29:39;-1.10;99.90
2407;DHT22;37709;53.480;9.688;2022-12-10T17:32:13;-1.10;99.90
2407;DHT22;37709;53.480;9.688;2022-12-10T17:34:41;-1.10;99.90
2407;DHT22;37709;53.480;9.688;2022-12-10T17:37:14;-1.10;99.90
2407;DHT22;37709;53.480;9.688;2022-12-10T17:39:45;-1.10;99.90
2407;DHT22;37709;53.480;9.688;2022-12-10T17:42:12;-1.10;99.90
2407;DHT22;37709;53.480;9.688;2022-12-10T17:44:40;-1.10;99.90
2407;DHT22;37709;53.480;9.688;2022-12-10T17:47:19;-1.10;99.90
2407;DHT22;37709;53.480;9.688;2022-12-10T17:49:47;-1.10;99.90
2407;DHT22;37709;53.480;9.688;2022-12-10T17:52:15;-1.10;99.90
2407;DHT22;37709;53.480;9.688;2022-12-10T17:54:43;-1.10;99.90
2407;DHT22;37709;53.480;9.688;2022-12-10T17:57:15;-1.10;99.90
2407;DHT22;37709;53.480;9.688;2022-12-10T17:59:44;-1.10;99.90